Time;durP1;ratioP1;P1;durP2;ratioP2;P2;SDS_P1;SDS_P2;PMS_P1;PMS_P2;Temp;Humidity;BMP_temperature;BMP_pressure;BME280_temperature;BME280_humidity;BME280_pressure;Samples;Min_cycle;Max_cycle;Signal;HPM_P1;HPM_P2
2021/09/01 00:00:28;;;;;;;1999.90;999.90;;;;;;;;;;5082510;28;20537;-83
2021/09/01 00:02:55;;;;;;;1999.90;999.90;;;;;;;;;;5079783;28;20490;-84
2021/09/01 00:05:22;;;;;;;1999.90;999.90;;;;;;;;;;5079779;28;20444;-83
2021/09/01 00:07:49;;;;;;;1999.90;999.90;;;;;;;;;;5078323;28;20488;-84
2021/09/01 00:10:18;;;;;;;1999.90;999.90;;;;;;;;;;5078574;28;20452;-84
2021/09/01 00:12:47;;;;;;;1999.90;999.90;;;;;;;;;;5078397;28;20972;-85
2021/09/01 00:15:14;;;;;;;1999.90;999.90;;;;;;;;;;5077754;28;20910;-84
2021/09/01 00:17:41;;;;;;;1999.90;999.90;;;;;;;;;;5059047;28;20527;-83
2021/09/01 00:20:10;;;;;;;1999.90;999.90;;;;;;;;;;5058411;28;20451;-83
2021/09/01 00:22:38;;;;;;;1999.90;999.90;;;;;;;;;;5057451;28;20462;-83
2021/09/01 00:25:05;;;;;;;1999.90;999.90;;;;;;;;;;5058641;28;20489;-84
2021/09/01 00:27:32;;;;;;;1999.90;999.90;;;;;;;;;;5076733;28;20464;-83
2021/09/01 00:30:01;;;;;;;1999.90;999.90;;;;;;;;;;5076279;28;20450;-83
2021/09/01 00:32:28;;;;;;;1999.90;999.90;;;;;;;;;;5077776;28;20960;-84
2021/09/01 00:34:56;;;;;;;1999.90;999.90;;;;;;;;;;5078318;28;20456;-84
2021/09/01 00:37:23;;;;;;;1999.90;999.90;;;;;;;;;;5077126;28;20477;-83
2021/09/01 00:39:51;;;;;;;1999.90;999.90;;;;;;;;;;5077867;28;20474;-84
2021/09/01 00:42:18;;;;;;;1999.90;999.90;;;;;;;;;;5088873;28;20534;-83
2021/09/01 00:44:46;;;;;;;1999.90;999.90;;;;;;;;;;5082371;28;20475;-84
2021/09/01 00:47:16;;;;;;;1999.90;999.90;;;;;;;;;;5078463;28;20483;-84
2021/09/01 00:49:43;;;;;;;1999.90;999.90;;;;;;;;;;5079204;28;20573;-82
2021/09/01 00:52:11;;;;;;;1999.90;999.90;;;;;;;;;;5079900;28;20541;-82
2021/09/01 00:54:39;;;;;;;1999.90;999.90;;;;;;;;;;5078873;28;20480;-82
2021/09/01 00:57:07;;;;;;;1999.90;999.90;;;;;;;;;;5078692;28;21000;-83
2021/09/01 00:59:36;;;;;;;1999.90;999.90;;;;;;;;;;5079750;28;20463;-83
2021/09/01 01:02:03;;;;;;;1999.90;999.90;;;;;;;;;;5079593;28;20460;-83
2021/09/01 01:04:33;;;;;;;1999.90;999.90;;;;;;;;;;5080884;28;20540;-82
2021/09/01 01:07:00;;;;;;;1999.90;999.90;;;;;;;;;;5083651;28;20915;-83
2021/09/01 01:09:27;;;;;;;1999.90;999.90;;;;;;;;;;5087693;28;20558;-84
2021/09/01 01:12:01;;;;;;;1999.90;999.90;;;;;;;;;;5083662;28;20459;-84
2021/09/01 01:14:28;;;;;;;1999.90;999.90;;;;;;;;;;5083535;28;21026;-85
2021/09/01 01:16:55;;;;;;;1999.90;999.90;;;;;;;;;;5083800;28;20534;-83
2021/09/01 01:19:22;;;;;;;1999.90;999.90;;;;;;;;;;5083038;28;20450;-84
2021/09/01 01:21:51;;;;;;;1999.90;999.90;;;;;;;;;;5080529;28;20454;-84
2021/09/01 01:24:18;;;;;;;1999.90;999.90;;;;;;;;;;5080777;28;20502;-84
2021/09/01 01:26:47;;;;;;;1999.90;999.90;;;;;;;;;;5080609;28;20453;-83
2021/09/01 01:29:14;;;;;;;1999.90;999.90;;;;;;;;;;5080994;28;20567;-83
2021/09/01 01:31:41;;;;;;;1999.90;999.90;;;;;;;;;;5078891;28;20457;-83
2021/09/01 01:34:13;;;;;;;1999.90;999.90;;;;;;;;;;5079639;28;20566;-84
2021/09/01 01:36:40;;;;;;;1999.90;999.90;;;;;;;;;;5079216;28;20462;-84
2021/09/01 01:39:07;;;;;;;1999.90;999.90;;;;;;;;;;5079808;28;20454;-84
2021/09/01 01:41:34;;;;;;;1999.90;999.90;;;;;;;;;;5079392;28;20458;-83
2021/09/01 01:44:03;;;;;;;1999.90;999.90;;;;;;;;;;5080532;28;20485;-84
2021/09/01 01:46:30;;;;;;;1999.90;999.90;;;;;;;;;;5079186;28;20483;-84
2021/09/01 01:48:57;;;;;;;1999.90;999.90;;;;;;;;;;5079955;28;20510;-84
2021/09/01 01:51:24;;;;;;;1999.90;999.90;;;;;;;;;;5079933;28;20455;-84
2021/09/01 01:53:52;;;;;;;1999.90;999.90;;;;;;;;;;5079406;28;20471;-84
2021/09/01 01:56:19;;;;;;;1999.90;999.90;;;;;;;;;;5079428;28;20539;-84
2021/09/01 01:58:46;;;;;;;1999.90;999.90;;;;;;;;;;5079498;28;20454;-84
2021/09/01 02:01:15;;;;;;;1999.90;999.90;;;;;;;;;;5087839;28;20515;-84
2021/09/01 02:03:42;;;;;;;1999.90;999.90;;;;;;;;;;5096866;28;20506;-84
2021/09/01 02:06:09;;;;;;;1999.90;999.90;;;;;;;;;;5095385;28;20533;-83
2021/09/01 02:08:36;;;;;;;1999.90;999.90;;;;;;;;;;5084065;28;20483;-83
2021/09/01 02:11:03;;;;;;;1999.90;999.90;;;;;;;;;;5083994;28;20460;-83
2021/09/01 02:13:30;;;;;;;1999.90;999.90;;;;;;;;;;5083801;28;20471;-83
2021/09/01 02:15:58;;;;;;;1999.90;999.90;;;;;;;;;;5084526;28;20511;-83
2021/09/01 02:18:26;;;;;;;1999.90;999.90;;;;;;;;;;5083148;28;20446;-83
2021/09/01 02:20:53;;;;;;;1999.90;999.90;;;;;;;;;;5084296;28;20451;-83
2021/09/01 02:23:21;;;;;;;1999.90;999.90;;;;;;;;;;5081822;28;20475;-82
2021/09/01 02:25:48;;;;;;;1999.90;999.90;;;;;;;;;;5080501;28;20541;-84
2021/09/01 02:28:15;;;;;;;1999.90;999.90;;;;;;;;;;5081241;28;20535;-84
2021/09/01 02:30:42;;;;;;;1999.90;999.90;;;;;;;;;;5082011;28;20450;-84
2021/09/01 02:33:09;;;;;;;1999.90;999.90;;;;;;;;;;5080634;28;20474;-83
2021/09/01 02:35:38;;;;;;;1999.90;999.90;;;;;;;;;;5082134;28;20514;-83
2021/09/01 02:38:05;;;;;;;1999.90;999.90;;;;;;;;;;5091706;28;20522;-83
2021/09/01 02:40:32;;;;;;;1999.90;999.90;;;;;;;;;;5082366;28;20451;-82
2021/09/01 02:42:59;;;;;;;1999.90;999.90;;;;;;;;;;5080051;28;20554;-83
2021/09/01 02:45:26;;;;;;;1999.90;999.90;;;;;;;;;;5081384;28;20454;-85
2021/09/01 02:47:54;;;;;;;1999.90;999.90;;;;;;;;;;5062319;28;20537;-83
2021/09/01 02:50:21;;;;;;;1999.90;999.90;;;;;;;;;;5062464;28;20486;-82
2021/09/01 02:52:49;;;;;;;1999.90;999.90;;;;;;;;;;5071213;28;20484;-83
2021/09/01 02:55:16;;;;;;;1999.90;999.90;;;;;;;;;;5083427;28;20458;-83
2021/09/01 02:57:45;;;;;;;1999.90;999.90;;;;;;;;;;5080937;28;20439;-83
2021/09/01 03:00:13;;;;;;;1999.90;999.90;;;;;;;;;;5081346;28;20511;-83
2021/09/01 03:02:40;;;;;;;1999.90;999.90;;;;;;;;;;5081038;28;20465;-83
2021/09/01 03:05:07;;;;;;;1999.90;999.90;;;;;;;;;;5081117;28;20458;-84
2021/09/01 03:07:35;;;;;;;1999.90;999.90;;;;;;;;;;5080321;28;20826;-82
2021/09/01 03:10:03;;;;;;;1999.90;999.90;;;;;;;;;;5080316;28;21004;-83
2021/09/01 03:12:30;;;;;;;1999.90;999.90;;;;;;;;;;5079285;28;20456;-83
2021/09/01 03:14:58;;;;;;;1999.90;999.90;;;;;;;;;;5080036;28;20457;-84
2021/09/01 03:17:25;;;;;;;1999.90;999.90;;;;;;;;;;5080039;28;20452;-83
2021/09/01 03:19:52;;;;;;;1999.90;999.90;;;;;;;;;;5080472;28;20453;-84
2021/09/01 03:22:19;;;;;;;1999.90;999.90;;;;;;;;;;5080587;28;20471;-83
2021/09/01 03:24:46;;;;;;;1999.90;999.90;;;;;;;;;;5079739;28;20972;-84
2021/09/01 03:27:15;;;;;;;1999.90;999.90;;;;;;;;;;5079922;28;20830;-82
2021/09/01 03:29:42;;;;;;;1999.90;999.90;;;;;;;;;;5079654;28;20483;-84
2021/09/01 03:32:09;;;;;;;1999.90;999.90;;;;;;;;;;5079717;28;20950;-83
2021/09/01 03:34:36;;;;;;;1999.90;999.90;;;;;;;;;;5079321;28;20470;-83
2021/09/01 03:37:03;;;;;;;1999.90;999.90;;;;;;;;;;5078026;28;20824;-84
2021/09/01 03:39:31;;;;;;;1999.90;999.90;;;;;;;;;;5078324;28;20576;-83
2021/09/01 03:41:58;;;;;;;1999.90;999.90;;;;;;;;;;5078143;28;20444;-83
2021/09/01 03:44:26;;;;;;;1999.90;999.90;;;;;;;;;;5058015;28;20466;-83
2021/09/01 03:46:53;;;;;;;1999.90;999.90;;;;;;;;;;5057850;28;21038;-84
2021/09/01 03:49:20;;;;;;;1999.90;999.90;;;;;;;;;;5057423;28;20487;-82
2021/09/01 03:51:48;;;;;;;1999.90;999.90;;;;;;;;;;5056916;28;21034;-83
2021/09/01 03:54:15;;;;;;;1999.90;999.90;;;;;;;;;;5076558;28;20475;-84
2021/09/01 03:56:42;;;;;;;1999.90;999.90;;;;;;;;;;5077030;28;20469;-84
2021/09/01 03:59:10;;;;;;;1999.90;999.90;;;;;;;;;;5077814;28;20440;-83
2021/09/01 04:01:38;;;;;;;1999.90;999.90;;;;;;;;;;5077528;28;20779;-83
2021/09/01 04:04:06;;;;;;;1999.90;999.90;;;;;;;;;;5077070;28;20508;-84
2021/09/01 04:06:34;;;;;;;1999.90;999.90;;;;;;;;;;5077809;28;21128;-83
2021/09/01 04:09:01;;;;;;;1999.90;999.90;;;;;;;;;;5081026;28;20493;-83
2021/09/01 04:11:28;;;;;;;1999.90;999.90;;;;;;;;;;5080388;28;20962;-84
2021/09/01 04:13:55;;;;;;;1999.90;999.90;;;;;;;;;;5077386;28;20470;-83
2021/09/01 04:16:23;;;;;;;1999.90;999.90;;;;;;;;;;5076561;28;20451;-83
2021/09/01 04:18:51;;;;;;;1999.90;999.90;;;;;;;;;;5077017;28;20446;-84
2021/09/01 04:21:18;;;;;;;1999.90;999.90;;;;;;;;;;5077417;28;20992;-84
2021/09/01 04:23:45;;;;;;;1999.90;999.90;;;;;;;;;;5076708;28;20478;-83
2021/09/01 04:26:13;;;;;;;1999.90;999.90;;;;;;;;;;5077028;28;20855;-84
2021/09/01 04:28:40;;;;;;;1999.90;999.90;;;;;;;;;;5077274;28;20947;-84
2021/09/01 04:31:07;;;;;;;1999.90;999.90;;;;;;;;;;5077301;28;20577;-84
2021/09/01 04:33:34;;;;;;;1999.90;999.90;;;;;;;;;;5087249;28;20528;-83
2021/09/01 04:36:03;;;;;;;1999.90;999.90;;;;;;;;;;5077922;28;20485;-85
2021/09/01 04:38:30;;;;;;;1999.90;999.90;;;;;;;;;;5077231;28;20454;-83
2021/09/01 04:40:57;;;;;;;1999.90;999.90;;;;;;;;;;5077427;28;20452;-83
2021/09/01 04:43:24;;;;;;;1999.90;999.90;;;;;;;;;;5076854;28;20574;-83
2021/09/01 04:45:51;;;;;;;1999.90;999.90;;;;;;;;;;5076030;28;20457;-84
2021/09/01 04:48:18;;;;;;;1999.90;999.90;;;;;;;;;;5075883;28;20444;-83
2021/09/01 04:50:45;;;;;;;1999.90;999.90;;;;;;;;;;5076225;28;20495;-83
2021/09/01 04:53:14;;;;;;;1999.90;999.90;;;;;;;;;;5075420;28;20491;-83
2021/09/01 04:55:41;;;;;;;1999.90;999.90;;;;;;;;;;5075889;28;20461;-84
2021/09/01 04:58:08;;;;;;;1999.90;999.90;;;;;;;;;;5075041;28;20447;-82
2021/09/01 05:00:36;;;;;;;1999.90;999.90;;;;;;;;;;5075455;28;20446;-82
2021/09/01 05:03:03;;;;;;;1999.90;999.90;;;;;;;;;;5076464;28;20848;-84
2021/09/01 05:05:30;;;;;;;1999.90;999.90;;;;;;;;;;5077884;28;20451;-84
2021/09/01 05:07:57;;;;;;;1999.90;999.90;;;;;;;;;;5076334;28;20460;-82
2021/09/01 05:10:25;;;;;;;1999.90;999.90;;;;;;;;;;5076451;28;20487;-83
2021/09/01 05:12:53;;;;;;;1999.90;999.90;;;;;;;;;;5076464;28;20472;-84
2021/09/01 05:15:20;;;;;;;1999.90;999.90;;;;;;;;;;5075610;28;20452;-84
2021/09/01 05:17:48;;;;;;;1999.90;999.90;;;;;;;;;;5075326;28;20452;-83
2021/09/01 05:20:15;;;;;;;1999.90;999.90;;;;;;;;;;5082472;28;20450;-85
2021/09/01 05:22:45;;;;;;;1999.90;999.90;;;;;;;;;;5080788;28;20478;-85
2021/09/01 05:25:14;;;;;;;1999.90;999.90;;;;;;;;;;5076890;28;20541;-83
2021/09/01 05:27:42;;;;;;;1999.90;999.90;;;;;;;;;;5076674;28;20513;-84
2021/09/01 05:30:11;;;;;;;1999.90;999.90;;;;;;;;;;5079683;28;21017;-85
2021/09/01 05:32:39;;;;;;;1999.90;999.90;;;;;;;;;;5079364;28;20455;-85
2021/09/01 05:35:07;;;;;;;1999.90;999.90;;;;;;;;;;5080743;28;20468;-85
2021/09/01 05:37:36;;;;;;;1999.90;999.90;;;;;;;;;;5080163;28;20457;-85
2021/09/01 05:40:04;;;;;;;1999.90;999.90;;;;;;;;;;5080601;28;20864;-86
2021/09/01 05:42:32;;;;;;;1999.90;999.90;;;;;;;;;;5079278;28;20475;-85
2021/09/01 05:45:01;;;;;;;1999.90;999.90;;;;;;;;;;5079968;28;20451;-85
2021/09/01 05:47:29;;;;;;;1999.90;999.90;;;;;;;;;;5078877;28;20451;-85
2021/09/01 05:49:58;;;;;;;1999.90;999.90;;;;;;;;;;5081248;28;20478;-83
2021/09/01 05:52:27;;;;;;;1999.90;999.90;;;;;;;;;;5081391;28;20451;-84
2021/09/01 05:54:55;;;;;;;1999.90;999.90;;;;;;;;;;5085656;28;20522;-83
2021/09/01 05:57:26;;;;;;;1999.90;999.90;;;;;;;;;;5085709;28;20452;-83
2021/09/01 05:59:56;;;;;;;1999.90;999.90;;;;;;;;;;5085220;28;20510;-84
2021/09/01 06:02:32;;;;;;;1999.90;999.90;;;;;;;;;;5085583;28;20449;-84
2021/09/01 06:05:02;;;;;;;1999.90;999.90;;;;;;;;;;5085706;28;20442;-85
2021/09/01 06:07:30;;;;;;;1999.90;999.90;;;;;;;;;;5086017;28;20497;-85
2021/09/01 06:09:59;;;;;;;1999.90;999.90;;;;;;;;;;5086573;28;20490;-85
2021/09/01 06:12:27;;;;;;;1999.90;999.90;;;;;;;;;;5085865;28;20465;-85
2021/09/01 06:14:59;;;;;;;1999.90;999.90;;;;;;;;;;5085170;28;20446;-84
2021/09/01 06:17:28;;;;;;;1999.90;999.90;;;;;;;;;;5084605;28;20504;-84
2021/09/01 06:19:56;;;;;;;1999.90;999.90;;;;;;;;;;5085823;28;20445;-85
2021/09/01 06:22:23;;;;;;;1999.90;999.90;;;;;;;;;;5085969;28;20464;-84
2021/09/01 06:24:50;;;;;;;1999.90;999.90;;;;;;;;;;5086304;28;20461;-85
2021/09/01 06:27:18;;;;;;;1999.90;999.90;;;;;;;;;;5088805;28;20477;-83
2021/09/01 06:29:45;;;;;;;1999.90;999.90;;;;;;;;;;5087440;28;20495;-82
2021/09/01 06:32:12;;;;;;;1999.90;999.90;;;;;;;;;;5077318;28;20462;-82
2021/09/01 06:34:41;;;;;;;1999.90;999.90;;;;;;;;;;5076842;28;20860;-83
2021/09/01 06:37:08;;;;;;;1999.90;999.90;;;;;;;;;;5076776;28;20469;-83
2021/09/01 06:39:35;;;;;;;1999.90;999.90;;;;;;;;;;5080545;28;20447;-83
2021/09/01 06:42:02;;;;;;;1999.90;999.90;;;;;;;;;;5085763;28;20910;-84
2021/09/01 06:44:29;;;;;;;1999.90;999.90;;;;;;;;;;5085572;28;20592;-85
2021/09/01 06:46:56;;;;;;;1999.90;999.90;;;;;;;;;;5084569;28;20542;-83
2021/09/01 06:49:24;;;;;;;1999.90;999.90;;;;;;;;;;5084941;28;20458;-83
2021/09/01 06:51:52;;;;;;;1999.90;999.90;;;;;;;;;;5082988;28;20487;-82
2021/09/01 06:54:19;;;;;;;1999.90;999.90;;;;;;;;;;5082510;28;21034;-84
2021/09/01 06:56:46;;;;;;;1999.90;999.90;;;;;;;;;;5079632;28;20450;-83
2021/09/01 06:59:13;;;;;;;1999.90;999.90;;;;;;;;;;5074745;28;20462;-83
2021/09/01 07:01:40;;;;;;;1999.90;999.90;;;;;;;;;;5074187;28;20545;-83
2021/09/01 07:04:07;;;;;;;1999.90;999.90;;;;;;;;;;5074016;28;20488;-85
2021/09/01 07:06:35;;;;;;;1999.90;999.90;;;;;;;;;;5073840;28;20937;-83
2021/09/01 07:09:03;;;;;;;1999.90;999.90;;;;;;;;;;5073714;28;20445;-83
2021/09/01 07:11:31;;;;;;;1999.90;999.90;;;;;;;;;;5073728;28;20860;-83
2021/09/01 07:13:58;;;;;;;1999.90;999.90;;;;;;;;;;5073050;28;20470;-82
2021/09/01 07:16:25;;;;;;;1999.90;999.90;;;;;;;;;;5073587;28;20454;-83
2021/09/01 07:18:52;;;;;;;1999.90;999.90;;;;;;;;;;5073947;28;21037;-85
2021/09/01 07:21:20;;;;;;;1999.90;999.90;;;;;;;;;;5073861;28;20508;-83
2021/09/01 07:23:47;;;;;;;1999.90;999.90;;;;;;;;;;5073332;28;20468;-83
2021/09/01 07:26:15;;;;;;;1999.90;999.90;;;;;;;;;;5074044;28;20455;-83
2021/09/01 07:28:42;;;;;;;1999.90;999.90;;;;;;;;;;5073907;28;20461;-83
2021/09/01 07:31:10;;;;;;;1999.90;999.90;;;;;;;;;;5073599;28;20867;-83
2021/09/01 07:33:37;;;;;;;1999.90;999.90;;;;;;;;;;5073726;28;20468;-83
2021/09/01 07:36:05;;;;;;;1999.90;999.90;;;;;;;;;;5073680;28;20630;-83
2021/09/01 07:38:32;;;;;;;1999.90;999.90;;;;;;;;;;5074690;28;20957;-83
2021/09/01 07:40:59;;;;;;;1999.90;999.90;;;;;;;;;;5077265;28;20446;-84
2021/09/01 07:43:29;;;;;;;1999.90;999.90;;;;;;;;;;5076314;28;20469;-82
2021/09/01 07:45:56;;;;;;;1999.90;999.90;;;;;;;;;;5073856;28;20455;-83
2021/09/01 07:48:23;;;;;;;1999.90;999.90;;;;;;;;;;5074264;28;20450;-85
2021/09/01 07:50:52;;;;;;;1999.90;999.90;;;;;;;;;;5079818;28;20512;-83
2021/09/01 07:53:19;;;;;;;1999.90;999.90;;;;;;;;;;5082088;28;20481;-83
2021/09/01 07:55:46;;;;;;;1999.90;999.90;;;;;;;;;;5081847;28;20454;-84
2021/09/01 07:58:13;;;;;;;1999.90;999.90;;;;;;;;;;5081471;28;20443;-85
2021/09/01 08:00:42;;;;;;;1999.90;999.90;;;;;;;;;;5082943;28;20454;-85
2021/09/01 08:03:09;;;;;;;1999.90;999.90;;;;;;;;;;5081314;28;20478;-85
2021/09/01 08:05:37;;;;;;;1999.90;999.90;;;;;;;;;;5085360;28;20450;-86
2021/09/01 08:08:04;;;;;;;1999.90;999.90;;;;;;;;;;5084650;28;20442;-85
2021/09/01 08:10:32;;;;;;;1999.90;999.90;;;;;;;;;;5084787;28;20479;-85
2021/09/01 08:12:59;;;;;;;1999.90;999.90;;;;;;;;;;5085953;28;20552;-84
2021/09/01 08:15:26;;;;;;;1999.90;999.90;;;;;;;;;;5082043;28;20527;-85
2021/09/01 08:17:54;;;;;;;1999.90;999.90;;;;;;;;;;5085897;28;20458;-85
2021/09/01 08:20:21;;;;;;;1999.90;999.90;;;;;;;;;;5087007;28;20445;-85
2021/09/01 08:22:49;;;;;;;1999.90;999.90;;;;;;;;;;5083889;28;20556;-83
2021/09/01 08:25:16;;;;;;;1999.90;999.90;;;;;;;;;;5080043;28;20450;-82
2021/09/01 08:27:46;;;;;;;1999.90;999.90;;;;;;;;;;5072486;28;20449;-84
2021/09/01 08:30:14;;;;;;;1999.90;999.90;;;;;;;;;;5072892;28;20441;-85
2021/09/01 08:32:41;;;;;;;1999.90;999.90;;;;;;;;;;5075149;28;20454;-85
2021/09/01 08:35:11;;;;;;;1999.90;999.90;;;;;;;;;;5075126;28;20450;-82
2021/09/01 08:37:38;;;;;;;1999.90;999.90;;;;;;;;;;5075378;28;20479;-83
2021/09/01 08:40:07;;;;;;;1999.90;999.90;;;;;;;;;;5075046;28;20947;-83
2021/09/01 08:42:34;;;;;;;1999.90;999.90;;;;;;;;;;5073816;28;20443;-82
2021/09/01 08:45:01;;;;;;;1999.90;999.90;;;;;;;;;;5073650;28;20458;-83
2021/09/01 08:47:29;;;;;;;1999.90;999.90;;;;;;;;;;5071569;28;20448;-85
2021/09/01 08:49:56;;;;;;;1999.90;999.90;;;;;;;;;;5074535;28;20448;-83
2021/09/01 08:52:25;;;;;;;1999.90;999.90;;;;;;;;;;5054258;28;20493;-82
2021/09/01 08:54:53;;;;;;;1999.90;999.90;;;;;;;;;;5070893;28;20443;-83
2021/09/01 08:57:20;;;;;;;1999.90;999.90;;;;;;;;;;5077331;28;20549;-83
2021/09/01 08:59:47;;;;;;;1999.90;999.90;;;;;;;;;;5078879;28;20450;-84
2021/09/01 09:02:14;;;;;;;1999.90;999.90;;;;;;;;;;5083067;28;20444;-84
2021/09/01 09:04:41;;;;;;;1999.90;999.90;;;;;;;;;;5082887;28;20508;-85
2021/09/01 09:07:09;;;;;;;1999.90;999.90;;;;;;;;;;5082616;28;20462;-85
2021/09/01 09:09:39;;;;;;;1999.90;999.90;;;;;;;;;;5083003;28;20475;-84
2021/09/01 09:12:08;;;;;;;1999.90;999.90;;;;;;;;;;5083337;28;20494;-84
2021/09/01 09:14:37;;;;;;;1999.90;999.90;;;;;;;;;;5084245;28;20467;-87
2021/09/01 09:17:06;;;;;;;1999.90;999.90;;;;;;;;;;5084559;28;20457;-84
2021/09/01 09:22:37;;;;;;;1999.90;999.90;;;;;;;;;;5071096;28;20437;-84
2021/09/01 09:25:11;;;;;;;1999.90;999.90;;;;;;;;;;5084087;28;20447;-87
2021/09/01 09:27:43;;;;;;;1999.90;999.90;;;;;;;;;;5074636;28;21047;-84
2021/09/01 09:30:26;;;;;;;1999.90;999.90;;;;;;;;;;5074683;28;20436;-85
2021/09/01 09:32:55;;;;;;;1999.90;999.90;;;;;;;;;;5087542;28;21072;-84
2021/09/01 09:35:22;;;;;;;1999.90;999.90;;;;;;;;;;5087957;28;20451;-84
2021/09/01 09:38:00;;;;;;;1999.90;999.90;;;;;;;;;;5087910;28;20845;-83
2021/09/01 09:40:29;;;;;;;1999.90;999.90;;;;;;;;;;5087224;28;20447;-83
2021/09/01 09:42:56;;;;;;;1999.90;999.90;;;;;;;;;;5086651;28;20472;-83
2021/09/01 09:45:24;;;;;;;1999.90;999.90;;;;;;;;;;5087013;28;20443;-83
2021/09/01 09:47:52;;;;;;;1999.90;999.90;;;;;;;;;;5087615;28;20457;-83
2021/09/01 09:50:20;;;;;;;1999.90;999.90;;;;;;;;;;5089640;28;20537;-83
2021/09/01 09:52:48;;;;;;;1999.90;999.90;;;;;;;;;;5088639;28;20493;-83
2021/09/01 09:55:16;;;;;;;1999.90;999.90;;;;;;;;;;5089326;28;20465;-81
2021/09/01 09:57:49;;;;;;;1999.90;999.90;;;;;;;;;;5095993;28;20437;-81
2021/09/01 10:00:17;;;;;;;1999.90;999.90;;;;;;;;;;5097645;28;20875;-84
2021/09/01 10:02:45;;;;;;;1999.90;999.90;;;;;;;;;;5093999;28;20444;-84
2021/09/01 10:05:12;;;;;;;1999.90;999.90;;;;;;;;;;5086860;28;20453;-86
2021/09/01 10:07:40;;;;;;;1999.90;999.90;;;;;;;;;;5088041;28;20428;-83
2021/09/01 10:10:07;;;;;;;1999.90;999.90;;;;;;;;;;5088437;28;20536;-82
2021/09/01 10:12:36;;;;;;;1999.90;999.90;;;;;;;;;;5086787;28;20482;-82
2021/09/01 10:15:06;;;;;;;1999.90;999.90;;;;;;;;;;5088733;28;20530;-82
2021/09/01 10:17:38;;;;;;;1999.90;999.90;;;;;;;;;;5089108;28;20446;-80
2021/09/01 10:20:06;;;;;;;1999.90;999.90;;;;;;;;;;5085787;28;20988;-81
2021/09/01 10:22:34;;;;;;;1999.90;999.90;;;;;;;;;;5081928;28;20510;-82
2021/09/01 10:25:01;;;;;;;1999.90;999.90;;;;;;;;;;5083613;28;20518;-82
2021/09/01 10:27:29;;;;;;;1999.90;999.90;;;;;;;;;;5084660;28;20452;-83
2021/09/01 10:29:58;;;;;;;1999.90;999.90;;;;;;;;;;5087037;28;20458;-82
2021/09/01 10:32:28;;;;;;;1999.90;999.90;;;;;;;;;;5085481;28;20516;-82
2021/09/01 10:35:16;;;;;;;1999.90;999.90;;;;;;;;;;5085704;28;20454;-82
2021/09/01 10:37:43;;;;;;;1999.90;999.90;;;;;;;;;;5082143;28;20449;-84
2021/09/01 10:40:12;;;;;;;1999.90;999.90;;;;;;;;;;5083679;28;20452;-81
2021/09/01 10:42:40;;;;;;;1999.90;999.90;;;;;;;;;;5082814;28;20436;-82
2021/09/01 10:45:09;;;;;;;1999.90;999.90;;;;;;;;;;5082409;28;20540;-84
2021/09/01 10:47:55;;;;;;;1999.90;999.90;;;;;;;;;;5082991;28;20514;-83
2021/09/01 10:50:30;;;;;;;1999.90;999.90;;;;;;;;;;5082821;28;20452;-83
2021/09/01 10:52:58;;;;;;;1999.90;999.90;;;;;;;;;;5082126;28;20493;-85
2021/09/01 10:55:25;;;;;;;1999.90;999.90;;;;;;;;;;5082766;28;20444;-82
2021/09/01 10:58:10;;;;;;;1999.90;999.90;;;;;;;;;;5081834;28;20454;-83
2021/09/01 11:00:39;;;;;;;1999.90;999.90;;;;;;;;;;5069021;28;20472;-83
2021/09/01 11:03:06;;;;;;;1999.90;999.90;;;;;;;;;;5082881;28;20502;-85
2021/09/01 11:05:35;;;;;;;1999.90;999.90;;;;;;;;;;5082565;28;20454;-81
2021/09/01 11:08:02;;;;;;;1999.90;999.90;;;;;;;;;;5093315;22;20497;-84
2021/09/01 11:10:29;;;;;;;1999.90;999.90;;;;;;;;;;5081123;28;20452;-82
2021/09/01 11:12:58;;;;;;;1999.90;999.90;;;;;;;;;;5079446;28;20943;-83
2021/09/01 11:15:25;;;;;;;1999.90;999.90;;;;;;;;;;5077844;28;20488;-82
2021/09/01 11:17:52;;;;;;;1999.90;999.90;;;;;;;;;;5062952;28;20503;-82
2021/09/01 11:20:22;;;;;;;1999.90;999.90;;;;;;;;;;5059260;28;20480;-82
2021/09/01 11:22:51;;;;;;;1999.90;999.90;;;;;;;;;;5059677;28;20439;-82
2021/09/01 11:25:19;;;;;;;1999.90;999.90;;;;;;;;;;5059385;28;20814;-82
2021/09/01 11:27:47;;;;;;;1999.90;999.90;;;;;;;;;;5060391;28;20467;-82
2021/09/01 11:30:15;;;;;;;1999.90;999.90;;;;;;;;;;5060369;28;20447;-82
2021/09/01 11:32:43;;;;;;;1999.90;999.90;;;;;;;;;;5054305;28;21084;-82
2021/09/01 11:35:13;;;;;;;1999.90;999.90;;;;;;;;;;5060418;28;20449;-82
2021/09/01 11:37:40;;;;;;;1999.90;999.90;;;;;;;;;;5057888;28;20497;-82
2021/09/01 11:40:10;;;;;;;1999.90;999.90;;;;;;;;;;5056884;28;20606;-82
2021/09/01 11:42:37;;;;;;;1999.90;999.90;;;;;;;;;;5056664;28;20445;-82
2021/09/01 11:45:04;;;;;;;1999.90;999.90;;;;;;;;;;5056323;28;20446;-82
2021/09/01 11:47:31;;;;;;;1999.90;999.90;;;;;;;;;;5057862;28;20517;-82
2021/09/01 11:49:58;;;;;;;1999.90;999.90;;;;;;;;;;5056534;28;20454;-81
2021/09/01 11:52:29;;;;;;;1999.90;999.90;;;;;;;;;;5054927;28;20479;-81
2021/09/01 11:54:56;;;;;;;1999.90;999.90;;;;;;;;;;5055491;28;20452;-82
2021/09/01 11:57:28;;;;;;;1999.90;999.90;;;;;;;;;;5055752;28;20467;-82
2021/09/01 11:59:55;;;;;;;1999.90;999.90;;;;;;;;;;5057017;28;20455;-81
2021/09/01 12:02:24;;;;;;;1999.90;999.90;;;;;;;;;;5057386;28;20837;-81
2021/09/01 12:04:51;;;;;;;1999.90;999.90;;;;;;;;;;5056817;28;20461;-81
2021/09/01 12:07:25;;;;;;;1999.90;999.90;;;;;;;;;;5056392;28;20480;-81
2021/09/01 12:09:54;;;;;;;1999.90;999.90;;;;;;;;;;5053732;28;20493;-82
2021/09/01 12:12:21;;;;;;;1999.90;999.90;;;;;;;;;;5055672;28;20478;-81
2021/09/01 12:14:50;;;;;;;1999.90;999.90;;;;;;;;;;5055418;28;20455;-82
2021/09/01 12:17:18;;;;;;;1999.90;999.90;;;;;;;;;;5057139;28;20511;-81
2021/09/01 12:19:46;;;;;;;1999.90;999.90;;;;;;;;;;5056278;28;20456;-82
2021/09/01 12:22:13;;;;;;;1999.90;999.90;;;;;;;;;;5051902;28;20435;-82
2021/09/01 12:24:40;;;;;;;1999.90;999.90;;;;;;;;;;5057277;28;20518;-81
2021/09/01 12:27:09;;;;;;;1999.90;999.90;;;;;;;;;;5058244;28;21018;-82
2021/09/01 12:29:37;;;;;;;1999.90;999.90;;;;;;;;;;5057337;28;20457;-82
2021/09/01 12:32:07;;;;;;;1999.90;999.90;;;;;;;;;;5053905;28;20506;-82
2021/09/01 12:34:36;;;;;;;1999.90;999.90;;;;;;;;;;5056157;28;20446;-81
2021/09/01 12:37:05;;;;;;;1999.90;999.90;;;;;;;;;;5055135;28;20503;-82
2021/09/01 12:39:46;;;;;;;1999.90;999.90;;;;;;;;;;5056748;28;20467;-82
2021/09/01 12:42:23;;;;;;;1999.90;999.90;;;;;;;;;;5059954;28;20446;-82
2021/09/01 12:44:51;;;;;;;1999.90;999.90;;;;;;;;;;5062174;28;20448;-81
2021/09/01 12:47:20;;;;;;;1999.90;999.90;;;;;;;;;;5055478;28;20470;-81
2021/09/01 12:49:48;;;;;;;1999.90;999.90;;;;;;;;;;5054705;28;21027;-82
2021/09/01 12:52:16;;;;;;;1999.90;999.90;;;;;;;;;;5062557;28;20485;-81
2021/09/01 12:54:43;;;;;;;1999.90;999.90;;;;;;;;;;5072967;28;20473;-81
2021/09/01 12:57:11;;;;;;;1999.90;999.90;;;;;;;;;;5054016;28;20830;-81
2021/09/01 12:59:39;;;;;;;1999.90;999.90;;;;;;;;;;5050764;28;20933;-81
2021/09/01 13:02:07;;;;;;;1999.90;999.90;;;;;;;;;;5039916;28;20611;-81
2021/09/01 13:04:35;;;;;;;1999.90;999.90;;;;;;;;;;5055336;28;20451;-80
2021/09/01 13:07:02;;;;;;;1999.90;999.90;;;;;;;;;;5056939;28;20475;-82
2021/09/01 13:09:30;;;;;;;1999.90;999.90;;;;;;;;;;5058193;28;21012;-80
2021/09/01 13:11:57;;;;;;;1999.90;999.90;;;;;;;;;;5056714;28;20475;-81
2021/09/01 13:14:24;;;;;;;1999.90;999.90;;;;;;;;;;5054057;28;20585;-80
2021/09/01 13:16:51;;;;;;;1999.90;999.90;;;;;;;;;;5056119;28;20466;-81
2021/09/01 13:19:18;;;;;;;1999.90;999.90;;;;;;;;;;5056085;28;20963;-81
2021/09/01 13:21:47;;;;;;;1999.90;999.90;;;;;;;;;;5056082;28;20451;-81
2021/09/01 13:24:15;;;;;;;1999.90;999.90;;;;;;;;;;5063021;28;20537;-80
2021/09/01 13:26:42;;;;;;;1999.90;999.90;;;;;;;;;;5056519;28;21018;-81
2021/09/01 13:29:09;;;;;;;1999.90;999.90;;;;;;;;;;5055581;28;20817;-81
2021/09/01 13:31:36;;;;;;;1999.90;999.90;;;;;;;;;;5039369;28;20447;-81
2021/09/01 13:34:03;;;;;;;1999.90;999.90;;;;;;;;;;5056009;28;20831;-81
2021/09/01 13:36:31;;;;;;;1999.90;999.90;;;;;;;;;;5055455;28;20470;-81
2021/09/01 13:39:00;;;;;;;1999.90;999.90;;;;;;;;;;5056212;28;20454;-81
2021/09/01 13:41:27;;;;;;;1999.90;999.90;;;;;;;;;;5059237;28;20445;-81
2021/09/01 13:43:54;;;;;;;1999.90;999.90;;;;;;;;;;5063759;28;20452;-82
2021/09/01 13:46:21;;;;;;;1999.90;999.90;;;;;;;;;;5061601;28;20538;-80
2021/09/01 13:48:49;;;;;;;1999.90;999.90;;;;;;;;;;5058534;28;20537;-82